Kremlin, Montana
Current Conditions -  °F | °C
As of 6:53 AM on Monday 26 Jan 2015 (Local Time) from KHVR Reporting Station
Clear Clear  
Wind Chill: 37°   Ceiling: Unl
Heat Index: 44°   Visibility: 10mi
Dew Point: 32°   Wind: 16mph
Humidity: 63%   Direction: 220°SW
Pressure: 29.96"   Gusts: NA
Location:  48.57°N, 110.09°W
Report Text: KHVR 261353Z AUTO 22014KT 10SM CLR 07/00 A2996 RMK AO2 SLP159 T00670000
Loading
Personal Weather Stations






























Interactive Weather Map New forecast layout! Learn more

10-Day Weather Forecast

Advertisements
Track Severe Weather on mobile